sensor_id;sensor_type;location;lat;lon;timestamp;temperature;humidity
35363;DHT22;21463;47.480;8.214;2022-10-31T00:00:07;21.10;56.30
35363;DHT22;21463;47.480;8.214;2022-10-31T00:01:24;21.10;56.40
35363;DHT22;21463;47.480;8.214;2022-10-31T00:02:27;21.00;56.30
35363;DHT22;21463;47.480;8.214;2022-10-31T00:03:30;21.00;56.30
35363;DHT22;21463;47.480;8.214;2022-10-31T00:04:32;21.00;56.30
35363;DHT22;21463;47.480;8.214;2022-10-31T00:05:35;21.10;56.30
35363;DHT22;21463;47.480;8.214;2022-10-31T00:06:37;21.10;56.30
35363;DHT22;21463;47.480;8.214;2022-10-31T00:07:40;21.00;56.30
35363;DHT22;21463;47.480;8.214;2022-10-31T00:08:45;21.00;56.20
35363;DHT22;21463;47.480;8.214;2022-10-31T00:09:47;21.00;56.20
35363;DHT22;21463;47.480;8.214;2022-10-31T00:10:50;21.00;56.20
35363;DHT22;21463;47.480;8.214;2022-10-31T00:11:52;21.00;56.20
35363;DHT22;21463;47.480;8.214;2022-10-31T00:12:55;21.10;56.30
35363;DHT22;21463;47.480;8.214;2022-10-31T00:13:58;21.10;56.30
35363;DHT22;21463;47.480;8.214;2022-10-31T00:15:01;21.00;56.20
35363;DHT22;21463;47.480;8.214;2022-10-31T00:16:04;21.00;56.20
35363;DHT22;21463;47.480;8.214;2022-10-31T00:17:07;21.00;56.20
35363;DHT22;21463;47.480;8.214;2022-10-31T00:18:10;21.00;56.20
35363;DHT22;21463;47.480;8.214;2022-10-31T00:19:13;21.10;56.30
35363;DHT22;21463;47.480;8.214;2022-10-31T00:20:15;21.00;56.20
35363;DHT22;21463;47.480;8.214;2022-10-31T00:21:18;21.00;56.20
35363;DHT22;21463;47.480;8.214;2022-10-31T00:22:20;21.00;56.20
35363;DHT22;21463;47.480;8.214;2022-10-31T00:23:23;21.00;56.20
35363;DHT22;21463;47.480;8.214;2022-10-31T00:24:25;21.00;56.20
35363;DHT22;21463;47.480;8.214;2022-10-31T00:25:32;21.00;56.20
35363;DHT22;21463;47.480;8.214;2022-10-31T00:26:34;21.00;56.20
35363;DHT22;21463;47.480;8.214;2022-10-31T00:27:37;21.00;56.20
35363;DHT22;21463;47.480;8.214;2022-10-31T00:28:39;21.10;56.30
35363;DHT22;21463;47.480;8.214;2022-10-31T00:29:42;21.10;56.30
35363;DHT22;21463;47.480;8.214;2022-10-31T00:30:44;21.10;56.20
35363;DHT22;21463;47.480;8.214;2022-10-31T00:31:47;21.00;56.20
35363;DHT22;21463;47.480;8.214;2022-10-31T00:32:50;21.10;56.20
35363;DHT22;21463;47.480;8.214;2022-10-31T00:33:52;21.20;56.30
35363;DHT22;21463;47.480;8.214;2022-10-31T00:34:55;21.00;56.20
35363;DHT22;21463;47.480;8.214;2022-10-31T00:35:57;21.00;56.20
35363;DHT22;21463;47.480;8.214;2022-10-31T00:37:00;21.10;56.20
35363;DHT22;21463;47.480;8.214;2022-10-31T00:38:02;21.10;56.20
35363;DHT22;21463;47.480;8.214;2022-10-31T00:39:05;21.00;56.10
35363;DHT22;21463;47.480;8.214;2022-10-31T00:40:08;21.00;56.20
35363;DHT22;21463;47.480;8.214;2022-10-31T00:41:11;21.00;56.20
35363;DHT22;21463;47.480;8.214;2022-10-31T00:42:15;21.10;56.20
35363;DHT22;21463;47.480;8.214;2022-10-31T00:43:19;21.00;56.10
35363;DHT22;21463;47.480;8.214;2022-10-31T00:44:22;21.10;56.20
35363;DHT22;21463;47.480;8.214;2022-10-31T00:45:24;21.10;56.20
35363;DHT22;21463;47.480;8.214;2022-10-31T00:46:27;21.00;56.10
35363;DHT22;21463;47.480;8.214;2022-10-31T00:47:30;21.00;56.10
35363;DHT22;21463;47.480;8.214;2022-10-31T00:48:32;21.10;56.20
35363;DHT22;21463;47.480;8.214;2022-10-31T00:49:35;21.10;56.20
35363;DHT22;21463;47.480;8.214;2022-10-31T00:50:38;21.00;56.10
35363;DHT22;21463;47.480;8.214;2022-10-31T00:51:41;21.00;56.10
35363;DHT22;21463;47.480;8.214;2022-10-31T00:52:44;21.10;56.20
35363;DHT22;21463;47.480;8.214;2022-10-31T00:53:46;21.10;56.20
35363;DHT22;21463;47.480;8.214;2022-10-31T00:54:49;21.10;56.20
35363;DHT22;21463;47.480;8.214;2022-10-31T00:55:52;21.10;56.10
35363;DHT22;21463;47.480;8.214;2022-10-31T00:56:54;21.10;56.20
35363;DHT22;21463;47.480;8.214;2022-10-31T00:57:57;21.00;56.10
35363;DHT22;21463;47.480;8.214;2022-10-31T00:59:01;21.00;56.10
35363;DHT22;21463;47.480;8.214;2022-10-31T01:00:03;21.00;56.10
35363;DHT22;21463;47.480;8.214;2022-10-31T01:01:06;21.00;56.10
35363;DHT22;21463;47.480;8.214;2022-10-31T01:02:09;21.00;56.10
35363;DHT22;21463;47.480;8.214;2022-10-31T01:03:12;21.00;56.10
35363;DHT22;21463;47.480;8.214;2022-10-31T01:04:16;21.10;56.10
35363;DHT22;21463;47.480;8.214;2022-10-31T01:05:19;21.10;56.10
35363;DHT22;21463;47.480;8.214;2022-10-31T01:06:21;21.10;56.10
35363;DHT22;21463;47.480;8.214;2022-10-31T01:07:24;21.00;56.10
35363;DHT22;21463;47.480;8.214;2022-10-31T01:08:27;21.00;56.10
35363;DHT22;21463;47.480;8.214;2022-10-31T01:09:30;21.10;56.10
35363;DHT22;21463;47.480;8.214;2022-10-31T01:10:34;21.10;56.10
35363;DHT22;21463;47.480;8.214;2022-10-31T01:11:36;21.00;56.00
35363;DHT22;21463;47.480;8.214;2022-10-31T01:12:45;21.10;56.10
35363;DHT22;21463;47.480;8.214;2022-10-31T01:13:53;21.10;56.10
35363;DHT22;21463;47.480;8.214;2022-10-31T01:14:55;21.00;56.00
35363;DHT22;21463;47.480;8.214;2022-10-31T01:15:59;21.10;56.10
35363;DHT22;21463;47.480;8.214;2022-10-31T01:17:03;21.10;56.60
35363;DHT22;21463;47.480;8.214;2022-10-31T01:18:05;21.10;56.10
35363;DHT22;21463;47.480;8.214;2022-10-31T01:19:08;21.00;56.00
35363;DHT22;21463;47.480;8.214;2022-10-31T01:20:11;21.00;56.00
35363;DHT22;21463;47.480;8.214;2022-10-31T01:21:20;21.10;56.00
35363;DHT22;21463;47.480;8.214;2022-10-31T01:22:24;21.00;56.00
35363;DHT22;21463;47.480;8.214;2022-10-31T01:23:27;21.10;56.00
35363;DHT22;21463;47.480;8.214;2022-10-31T01:24:29;21.10;56.00
35363;DHT22;21463;47.480;8.214;2022-10-31T01:25:32;21.10;56.00
35363;DHT22;21463;47.480;8.214;2022-10-31T01:26:34;21.10;56.00
35363;DHT22;21463;47.480;8.214;2022-10-31T01:27:37;21.10;56.10
35363;DHT22;21463;47.480;8.214;2022-10-31T01:28:48;21.10;56.10
35363;DHT22;21463;47.480;8.214;2022-10-31T01:29:50;21.10;56.00
35363;DHT22;21463;47.480;8.214;2022-10-31T01:30:53;21.10;56.00
35363;DHT22;21463;47.480;8.214;2022-10-31T01:31:55;21.00;56.00
35363;DHT22;21463;47.480;8.214;2022-10-31T01:32:58;21.00;56.00
35363;DHT22;21463;47.480;8.214;2022-10-31T01:34:01;21.10;56.00
35363;DHT22;21463;47.480;8.214;2022-10-31T01:35:04;21.00;56.00
35363;DHT22;21463;47.480;8.214;2022-10-31T01:37:24;21.10;56.00
35363;DHT22;21463;47.480;8.214;2022-10-31T01:38:26;21.10;56.00
35363;DHT22;21463;47.480;8.214;2022-10-31T01:39:29;21.00;56.00
35363;DHT22;21463;47.480;8.214;2022-10-31T01:40:31;21.10;56.00
35363;DHT22;21463;47.480;8.214;2022-10-31T01:41:37;21.00;56.00
35363;DHT22;21463;47.480;8.214;2022-10-31T01:42:40;21.10;56.00
35363;DHT22;21463;47.480;8.214;2022-10-31T01:43:53;21.00;56.00
35363;DHT22;21463;47.480;8.214;2022-10-31T01:44:56;21.10;56.00
35363;DHT22;21463;47.480;8.214;2022-10-31T01:46:00;21.00;56.00
35363;DHT22;21463;47.480;8.214;2022-10-31T01:47:15;21.00;56.00
35363;DHT22;21463;47.480;8.214;2022-10-31T01:48:21;21.00;56.00
35363;DHT22;21463;47.480;8.214;2022-10-31T01:49:34;21.10;56.00
35363;DHT22;21463;47.480;8.214;2022-10-31T01:50:39;21.10;56.00
35363;DHT22;21463;47.480;8.214;2022-10-31T01:51:48;21.00;55.90
35363;DHT22;21463;47.480;8.214;2022-10-31T01:52:52;21.10;56.00
35363;DHT22;21463;47.480;8.214;2022-10-31T01:53:59;21.10;56.00
35363;DHT22;21463;47.480;8.214;2022-10-31T01:56:08;21.00;55.90
35363;DHT22;21463;47.480;8.214;2022-10-31T01:57:14;21.10;56.00
35363;DHT22;21463;47.480;8.214;2022-10-31T01:58:24;21.00;55.90
35363;DHT22;21463;47.480;8.214;2022-10-31T01:59:29;21.00;55.90
35363;DHT22;21463;47.480;8.214;2022-10-31T02:00:33;21.10;55.90
35363;DHT22;21463;47.480;8.214;2022-10-31T02:01:37;21.10;55.90
35363;DHT22;21463;47.480;8.214;2022-10-31T02:02:40;21.00;55.90
35363;DHT22;21463;47.480;8.214;2022-10-31T02:03:44;21.10;56.00
35363;DHT22;21463;47.480;8.214;2022-10-31T02:04:48;21.00;55.90
35363;DHT22;21463;47.480;8.214;2022-10-31T02:05:56;21.00;55.90
35363;DHT22;21463;47.480;8.214;2022-10-31T02:07:12;21.10;55.90
35363;DHT22;21463;47.480;8.214;2022-10-31T02:09:25;21.00;55.90
35363;DHT22;21463;47.480;8.214;2022-10-31T02:10:31;21.10;55.90
35363;DHT22;21463;47.480;8.214;2022-10-31T02:11:35;21.00;55.90
35363;DHT22;21463;47.480;8.214;2022-10-31T02:12:39;21.00;55.90
35363;DHT22;21463;47.480;8.214;2022-10-31T02:13:43;21.10;55.90
35363;DHT22;21463;47.480;8.214;2022-10-31T02:14:46;21.10;55.90
35363;DHT22;21463;47.480;8.214;2022-10-31T02:15:56;21.00;55.80
35363;DHT22;21463;47.480;8.214;2022-10-31T02:16:58;21.10;55.90
35363;DHT22;21463;47.480;8.214;2022-10-31T02:18:03;21.10;55.80
35363;DHT22;21463;47.480;8.214;2022-10-31T02:19:08;21.00;55.80
35363;DHT22;21463;47.480;8.214;2022-10-31T02:20:17;21.00;55.80
35363;DHT22;21463;47.480;8.214;2022-10-31T02:21:32;21.00;55.80
35363;DHT22;21463;47.480;8.214;2022-10-31T02:22:53;21.00;55.80
35363;DHT22;21463;47.480;8.214;2022-10-31T02:26:58;21.00;55.80
35363;DHT22;21463;47.480;8.214;2022-10-31T02:29:40;21.00;55.80
35363;DHT22;21463;47.480;8.214;2022-10-31T02:32:43;21.00;55.70
35363;DHT22;21463;47.480;8.214;2022-10-31T02:33:46;21.00;55.70
35363;DHT22;21463;47.480;8.214;2022-10-31T02:35:13;21.10;55.80
35363;DHT22;21463;47.480;8.214;2022-10-31T02:39:26;21.10;55.80
35363;DHT22;21463;47.480;8.214;2022-10-31T02:42:14;21.10;55.70
35363;DHT22;21463;47.480;8.214;2022-10-31T02:43:26;21.00;55.70
35363;DHT22;21463;47.480;8.214;2022-10-31T02:47:17;21.10;55.70
35363;DHT22;21463;47.480;8.214;2022-10-31T02:48:26;21.10;55.70
35363;DHT22;21463;47.480;8.214;2022-10-31T02:51:08;21.10;55.70
35363;DHT22;21463;47.480;8.214;2022-10-31T02:52:25;21.00;55.60
35363;DHT22;21463;47.480;8.214;2022-10-31T02:53:35;21.10;55.70
35363;DHT22;21463;47.480;8.214;2022-10-31T02:54:38;21.10;55.70
35363;DHT22;21463;47.480;8.214;2022-10-31T02:55:50;21.00;55.70
35363;DHT22;21463;47.480;8.214;2022-10-31T02:57:00;21.00;55.60
35363;DHT22;21463;47.480;8.214;2022-10-31T02:58:07;21.00;55.60
35363;DHT22;21463;47.480;8.214;2022-10-31T02:59:11;21.10;55.70
35363;DHT22;21463;47.480;8.214;2022-10-31T03:00:14;21.00;55.60
35363;DHT22;21463;47.480;8.214;2022-10-31T03:02:48;21.10;55.70
35363;DHT22;21463;47.480;8.214;2022-10-31T03:08:38;21.10;55.60
35363;DHT22;21463;47.480;8.214;2022-10-31T03:09:50;21.00;55.60
35363;DHT22;21463;47.480;8.214;2022-10-31T03:10:57;21.00;55.60
35363;DHT22;21463;47.480;8.214;2022-10-31T03:13:17;21.10;55.60
35363;DHT22;21463;47.480;8.214;2022-10-31T03:14:36;21.10;55.60
35363;DHT22;21463;47.480;8.214;2022-10-31T03:15:44;21.00;55.50
35363;DHT22;21463;47.480;8.214;2022-10-31T03:16:49;21.00;55.50
35363;DHT22;21463;47.480;8.214;2022-10-31T03:19:41;21.00;55.50
35363;DHT22;21463;47.480;8.214;2022-10-31T03:20:50;21.00;55.50
35363;DHT22;21463;47.480;8.214;2022-10-31T03:22:01;21.10;55.60
35363;DHT22;21463;47.480;8.214;2022-10-31T03:23:08;21.00;55.50
35363;DHT22;21463;47.480;8.214;2022-10-31T03:24:14;21.10;55.60
35363;DHT22;21463;47.480;8.214;2022-10-31T03:25:18;21.00;55.50
35363;DHT22;21463;47.480;8.214;2022-10-31T03:26:23;21.10;55.60
35363;DHT22;21463;47.480;8.214;2022-10-31T03:27:31;21.00;55.50
35363;DHT22;21463;47.480;8.214;2022-10-31T03:28:38;21.10;55.60
35363;DHT22;21463;47.480;8.214;2022-10-31T03:29:43;21.10;55.50
35363;DHT22;21463;47.480;8.214;2022-10-31T03:30:48;21.00;56.00
35363;DHT22;21463;47.480;8.214;2022-10-31T03:31:59;21.10;55.60
35363;DHT22;21463;47.480;8.214;2022-10-31T03:33:05;21.00;55.50
35363;DHT22;21463;47.480;8.214;2022-10-31T03:34:09;21.00;55.50
35363;DHT22;21463;47.480;8.214;2022-10-31T03:35:17;21.10;55.50
35363;DHT22;21463;47.480;8.214;2022-10-31T03:36:21;21.00;55.40
35363;DHT22;21463;47.480;8.214;2022-10-31T03:37:27;21.10;55.50
35363;DHT22;21463;47.480;8.214;2022-10-31T03:38:31;21.10;55.50
35363;DHT22;21463;47.480;8.214;2022-10-31T03:39:38;21.10;55.50
35363;DHT22;21463;47.480;8.214;2022-10-31T03:40:45;21.00;55.40
35363;DHT22;21463;47.480;8.214;2022-10-31T03:41:56;21.00;55.40
35363;DHT22;21463;47.480;8.214;2022-10-31T03:43:04;21.00;55.40
35363;DHT22;21463;47.480;8.214;2022-10-31T03:44:17;21.10;55.50
35363;DHT22;21463;47.480;8.214;2022-10-31T03:45:30;21.10;55.50
35363;DHT22;21463;47.480;8.214;2022-10-31T03:46:33;21.00;55.40
35363;DHT22;21463;47.480;8.214;2022-10-31T03:47:37;21.00;55.40
35363;DHT22;21463;47.480;8.214;2022-10-31T03:48:40;21.00;55.40
35363;DHT22;21463;47.480;8.214;2022-10-31T03:49:43;21.00;55.40
35363;DHT22;21463;47.480;8.214;2022-10-31T03:51:12;21.00;55.40
35363;DHT22;21463;47.480;8.214;2022-10-31T03:52:26;21.10;55.50
35363;DHT22;21463;47.480;8.214;2022-10-31T03:53:32;21.00;55.40
35363;DHT22;21463;47.480;8.214;2022-10-31T03:54:42;21.10;55.50
35363;DHT22;21463;47.480;8.214;2022-10-31T03:55:58;21.10;55.50
35363;DHT22;21463;47.480;8.214;2022-10-31T03:58:36;21.00;55.40
35363;DHT22;21463;47.480;8.214;2022-10-31T03:59:45;21.10;55.40
35363;DHT22;21463;47.480;8.214;2022-10-31T04:00:51;21.00;55.40
35363;DHT22;21463;47.480;8.214;2022-10-31T04:01:58;21.00;55.30
35363;DHT22;21463;47.480;8.214;2022-10-31T04:03:07;21.10;55.40
35363;DHT22;21463;47.480;8.214;2022-10-31T04:04:13;21.00;55.30
35363;DHT22;21463;47.480;8.214;2022-10-31T04:05:18;21.00;55.30
35363;DHT22;21463;47.480;8.214;2022-10-31T04:06:22;21.10;55.40
35363;DHT22;21463;47.480;8.214;2022-10-31T04:07:28;21.00;55.30
35363;DHT22;21463;47.480;8.214;2022-10-31T04:08:39;21.00;55.30
35363;DHT22;21463;47.480;8.214;2022-10-31T04:09:45;21.10;55.30
35363;DHT22;21463;47.480;8.214;2022-10-31T04:10:49;21.10;55.30
35363;DHT22;21463;47.480;8.214;2022-10-31T04:11:56;21.00;55.30
35363;DHT22;21463;47.480;8.214;2022-10-31T04:13:16;21.00;55.30
35363;DHT22;21463;47.480;8.214;2022-10-31T04:14:26;21.10;55.40
35363;DHT22;21463;47.480;8.214;2022-10-31T04:15:33;21.10;55.30
35363;DHT22;21463;47.480;8.214;2022-10-31T04:16:40;21.10;55.40
35363;DHT22;21463;47.480;8.214;2022-10-31T04:17:45;21.10;55.30
35363;DHT22;21463;47.480;8.214;2022-10-31T04:18:51;21.00;55.30
35363;DHT22;21463;47.480;8.214;2022-10-31T04:19:54;21.10;55.30
35363;DHT22;21463;47.480;8.214;2022-10-31T04:21:05;21.00;55.30
35363;DHT22;21463;47.480;8.214;2022-10-31T04:22:08;21.00;55.30
35363;DHT22;21463;47.480;8.214;2022-10-31T04:23:20;21.00;55.30
35363;DHT22;21463;47.480;8.214;2022-10-31T04:24:25;21.10;55.30
35363;DHT22;21463;47.480;8.214;2022-10-31T04:25:28;21.10;55.30
35363;DHT22;21463;47.480;8.214;2022-10-31T04:26:30;21.00;55.30
35363;DHT22;21463;47.480;8.214;2022-10-31T04:27:33;21.10;55.30
35363;DHT22;21463;47.480;8.214;2022-10-31T04:28:35;21.10;55.30
35363;DHT22;21463;47.480;8.214;2022-10-31T04:29:38;21.10;55.30
35363;DHT22;21463;47.480;8.214;2022-10-31T04:30:41;21.10;55.30
35363;DHT22;21463;47.480;8.214;2022-10-31T04:31:43;21.00;55.20
35363;DHT22;21463;47.480;8.214;2022-10-31T04:32:46;21.10;55.30
35363;DHT22;21463;47.480;8.214;2022-10-31T04:33:49;21.00;55.20
35363;DHT22;21463;47.480;8.214;2022-10-31T04:34:52;21.00;55.30
35363;DHT22;21463;47.480;8.214;2022-10-31T04:35:54;21.00;55.20
35363;DHT22;21463;47.480;8.214;2022-10-31T04:36:57;21.00;55.80
35363;DHT22;21463;47.480;8.214;2022-10-31T04:37:59;21.10;55.30
35363;DHT22;21463;47.480;8.214;2022-10-31T04:39:02;21.00;55.20
35363;DHT22;21463;47.480;8.214;2022-10-31T04:40:14;21.00;55.20
35363;DHT22;21463;47.480;8.214;2022-10-31T04:41:35;21.00;55.20
35363;DHT22;21463;47.480;8.214;2022-10-31T04:42:42;21.00;55.20
35363;DHT22;21463;47.480;8.214;2022-10-31T04:43:45;21.00;55.20
35363;DHT22;21463;47.480;8.214;2022-10-31T04:44:51;21.00;55.10
35363;DHT22;21463;47.480;8.214;2022-10-31T04:45:54;21.10;55.20
35363;DHT22;21463;47.480;8.214;2022-10-31T04:46:57;21.00;55.20
35363;DHT22;21463;47.480;8.214;2022-10-31T04:47:59;21.00;55.10
35363;DHT22;21463;47.480;8.214;2022-10-31T04:49:08;21.00;55.10
35363;DHT22;21463;47.480;8.214;2022-10-31T04:50:11;21.00;55.10
35363;DHT22;21463;47.480;8.214;2022-10-31T04:51:13;21.00;55.10
35363;DHT22;21463;47.480;8.214;2022-10-31T04:52:16;21.10;55.20
35363;DHT22;21463;47.480;8.214;2022-10-31T04:53:18;21.00;55.10
35363;DHT22;21463;47.480;8.214;2022-10-31T04:54:41;21.10;55.20
35363;DHT22;21463;47.480;8.214;2022-10-31T04:56:06;21.00;55.10
35363;DHT22;21463;47.480;8.214;2022-10-31T04:57:15;21.10;55.20
35363;DHT22;21463;47.480;8.214;2022-10-31T04:58:18;21.00;55.10
35363;DHT22;21463;47.480;8.214;2022-10-31T04:59:24;21.10;55.10
35363;DHT22;21463;47.480;8.214;2022-10-31T05:00:28;21.00;55.10
35363;DHT22;21463;47.480;8.214;2022-10-31T05:01:31;21.10;55.10
35363;DHT22;21463;47.480;8.214;2022-10-31T05:03:47;21.10;55.10
35363;DHT22;21463;47.480;8.214;2022-10-31T05:04:50;21.00;55.00
35363;DHT22;21463;47.480;8.214;2022-10-31T05:05:53;21.00;55.00
35363;DHT22;21463;47.480;8.214;2022-10-31T05:06:55;21.00;55.00
35363;DHT22;21463;47.480;8.214;2022-10-31T05:07:58;21.00;55.00
35363;DHT22;21463;47.480;8.214;2022-10-31T05:09:01;21.00;55.00
35363;DHT22;21463;47.480;8.214;2022-10-31T05:10:04;21.00;55.00
35363;DHT22;21463;47.480;8.214;2022-10-31T05:11:07;21.10;55.10
35363;DHT22;21463;47.480;8.214;2022-10-31T05:12:10;21.00;55.00
35363;DHT22;21463;47.480;8.214;2022-10-31T05:13:50;21.00;55.00
35363;DHT22;21463;47.480;8.214;2022-10-31T05:15:28;21.10;55.00
35363;DHT22;21463;47.480;8.214;2022-10-31T05:17:03;21.00;55.00
35363;DHT22;21463;47.480;8.214;2022-10-31T05:18:38;21.00;55.00
35363;DHT22;21463;47.480;8.214;2022-10-31T05:19:59;21.00;55.00
35363;DHT22;21463;47.480;8.214;2022-10-31T05:21:38;21.10;55.00
35363;DHT22;21463;47.480;8.214;2022-10-31T05:22:43;21.00;55.00
35363;DHT22;21463;47.480;8.214;2022-10-31T05:23:46;21.10;55.00
35363;DHT22;21463;47.480;8.214;2022-10-31T05:24:50;21.00;54.90
35363;DHT22;21463;47.480;8.214;2022-10-31T05:25:53;21.10;55.00
35363;DHT22;21463;47.480;8.214;2022-10-31T05:26:55;21.00;54.90
35363;DHT22;21463;47.480;8.214;2022-10-31T05:27:58;21.00;54.90
35363;DHT22;21463;47.480;8.214;2022-10-31T05:29:01;21.00;54.90
35363;DHT22;21463;47.480;8.214;2022-10-31T05:30:04;21.00;54.90
35363;DHT22;21463;47.480;8.214;2022-10-31T05:31:07;21.00;54.90
35363;DHT22;21463;47.480;8.214;2022-10-31T05:32:10;21.00;54.90
35363;DHT22;21463;47.480;8.214;2022-10-31T05:33:32;21.10;54.90
35363;DHT22;21463;47.480;8.214;2022-10-31T05:34:53;21.00;54.90
35363;DHT22;21463;47.480;8.214;2022-10-31T05:36:14;21.10;54.90
35363;DHT22;21463;47.480;8.214;2022-10-31T05:37:46;21.10;54.90
35363;DHT22;21463;47.480;8.214;2022-10-31T05:38:48;21.00;54.80
35363;DHT22;21463;47.480;8.214;2022-10-31T05:40:05;21.00;54.90
35363;DHT22;21463;47.480;8.214;2022-10-31T05:41:10;21.00;54.80
35363;DHT22;21463;47.480;8.214;2022-10-31T05:42:15;21.10;54.90
35363;DHT22;21463;47.480;8.214;2022-10-31T05:43:17;21.00;54.80
35363;DHT22;21463;47.480;8.214;2022-10-31T05:44:20;21.00;54.80
35363;DHT22;21463;47.480;8.214;2022-10-31T05:45:45;21.00;54.80
35363;DHT22;21463;47.480;8.214;2022-10-31T05:47:08;21.10;54.90
35363;DHT22;21463;47.480;8.214;2022-10-31T05:48:29;21.10;54.90
35363;DHT22;21463;47.480;8.214;2022-10-31T05:49:51;21.10;54.90
35363;DHT22;21463;47.480;8.214;2022-10-31T05:51:12;21.00;54.80
35363;DHT22;21463;47.480;8.214;2022-10-31T05:52:15;21.00;54.80
35363;DHT22;21463;47.480;8.214;2022-10-31T05:53:25;21.00;54.80
35363;DHT22;21463;47.480;8.214;2022-10-31T05:54:28;21.00;54.80
35363;DHT22;21463;47.480;8.214;2022-10-31T05:55:31;21.00;54.80
35363;DHT22;21463;47.480;8.214;2022-10-31T05:56:39;21.10;54.80
35363;DHT22;21463;47.480;8.214;2022-10-31T05:57:41;21.00;54.80
35363;DHT22;21463;47.480;8.214;2022-10-31T05:58:44;21.10;54.80
35363;DHT22;21463;47.480;8.214;2022-10-31T05:59:46;21.10;54.80
35363;DHT22;21463;47.480;8.214;2022-10-31T06:00:57;21.10;54.80
35363;DHT22;21463;47.480;8.214;2022-10-31T06:02:02;21.10;54.80
35363;DHT22;21463;47.480;8.214;2022-10-31T06:03:23;21.00;54.80
35363;DHT22;21463;47.480;8.214;2022-10-31T06:04:32;21.00;54.80
35363;DHT22;21463;47.480;8.214;2022-10-31T06:05:35;21.10;54.80
35363;DHT22;21463;47.480;8.214;2022-10-31T06:06:38;21.10;54.80
35363;DHT22;21463;47.480;8.214;2022-10-31T06:07:42;21.00;54.70
35363;DHT22;21463;47.480;8.214;2022-10-31T06:08:44;21.00;54.70
35363;DHT22;21463;47.480;8.214;2022-10-31T06:09:50;21.00;54.70
35363;DHT22;21463;47.480;8.214;2022-10-31T06:10:55;21.00;54.70
35363;DHT22;21463;47.480;8.214;2022-10-31T06:12:16;21.10;54.70
35363;DHT22;21463;47.480;8.214;2022-10-31T06:13:39;21.10;54.80
35363;DHT22;21463;47.480;8.214;2022-10-31T06:14:50;21.00;54.70
35363;DHT22;21463;47.480;8.214;2022-10-31T06:15:53;21.10;54.70
35363;DHT22;21463;47.480;8.214;2022-10-31T06:16:59;21.00;54.70
35363;DHT22;21463;47.480;8.214;2022-10-31T06:18:17;21.10;54.70
35363;DHT22;21463;47.480;8.214;2022-10-31T06:19:22;21.00;54.70
35363;DHT22;21463;47.480;8.214;2022-10-31T06:20:25;21.00;54.70
35363;DHT22;21463;47.480;8.214;2022-10-31T06:21:36;21.10;54.70
35363;DHT22;21463;47.480;8.214;2022-10-31T06:22:38;21.10;54.70
35363;DHT22;21463;47.480;8.214;2022-10-31T06:23:41;21.00;54.60
35363;DHT22;21463;47.480;8.214;2022-10-31T06:25:09;21.10;54.70
35363;DHT22;21463;47.480;8.214;2022-10-31T06:26:15;21.10;54.70
35363;DHT22;21463;47.480;8.214;2022-10-31T06:27:18;21.00;54.60
35363;DHT22;21463;47.480;8.214;2022-10-31T06:28:21;21.00;54.70
35363;DHT22;21463;47.480;8.214;2022-10-31T06:29:29;21.00;54.60
35363;DHT22;21463;47.480;8.214;2022-10-31T06:30:55;21.10;54.70
35363;DHT22;21463;47.480;8.214;2022-10-31T06:31:58;21.10;54.70
35363;DHT22;21463;47.480;8.214;2022-10-31T06:33:04;21.00;54.60
35363;DHT22;21463;47.480;8.214;2022-10-31T06:34:10;21.10;54.70
35363;DHT22;21463;47.480;8.214;2022-10-31T06:35:12;21.00;54.60
35363;DHT22;21463;47.480;8.214;2022-10-31T06:36:16;21.00;54.60
35363;DHT22;21463;47.480;8.214;2022-10-31T06:37:19;21.00;54.60
35363;DHT22;21463;47.480;8.214;2022-10-31T06:38:25;21.10;54.60
35363;DHT22;21463;47.480;8.214;2022-10-31T06:39:29;21.00;54.60
35363;DHT22;21463;47.480;8.214;2022-10-31T06:40:32;21.10;54.60
35363;DHT22;21463;47.480;8.214;2022-10-31T06:41:50;21.00;55.10
35363;DHT22;21463;47.480;8.214;2022-10-31T06:42:57;21.10;54.60
35363;DHT22;21463;47.480;8.214;2022-10-31T06:44:00;21.10;54.70
35363;DHT22;21463;47.480;8.214;2022-10-31T06:45:29;21.00;54.60
35363;DHT22;21463;47.480;8.214;2022-10-31T06:46:58;21.10;54.60
35363;DHT22;21463;47.480;8.214;2022-10-31T06:48:16;21.10;54.60
35363;DHT22;21463;47.480;8.214;2022-10-31T06:49:38;21.00;54.60
35363;DHT22;21463;47.480;8.214;2022-10-31T06:50:47;21.10;54.60
35363;DHT22;21463;47.480;8.214;2022-10-31T06:51:50;21.10;54.60
35363;DHT22;21463;47.480;8.214;2022-10-31T06:52:57;21.10;54.60
35363;DHT22;21463;47.480;8.214;2022-10-31T06:54:00;21.10;54.60
35363;DHT22;21463;47.480;8.214;2022-10-31T06:55:02;21.10;54.60
35363;DHT22;21463;47.480;8.214;2022-10-31T06:56:07;21.00;55.10
35363;DHT22;21463;47.480;8.214;2022-10-31T06:57:14;21.00;54.50
35363;DHT22;21463;47.480;8.214;2022-10-31T06:58:17;21.10;54.60
35363;DHT22;21463;47.480;8.214;2022-10-31T06:59:21;21.00;54.50
35363;DHT22;21463;47.480;8.214;2022-10-31T07:00:42;21.00;54.50
35363;DHT22;21463;47.480;8.214;2022-10-31T07:01:45;21.00;54.50
35363;DHT22;21463;47.480;8.214;2022-10-31T07:03:05;21.00;54.50
35363;DHT22;21463;47.480;8.214;2022-10-31T07:04:10;21.10;54.60
35363;DHT22;21463;47.480;8.214;2022-10-31T07:05:13;21.00;54.50
35363;DHT22;21463;47.480;8.214;2022-10-31T07:06:15;21.00;54.50
35363;DHT22;21463;47.480;8.214;2022-10-31T07:07:18;21.00;54.50
35363;DHT22;21463;47.480;8.214;2022-10-31T07:08:25;21.10;54.60
35363;DHT22;21463;47.480;8.214;2022-10-31T07:09:27;21.00;54.50
35363;DHT22;21463;47.480;8.214;2022-10-31T07:10:34;21.00;54.50
35363;DHT22;21463;47.480;8.214;2022-10-31T07:11:42;21.00;54.50
35363;DHT22;21463;47.480;8.214;2022-10-31T07:12:45;21.10;54.60
35363;DHT22;21463;47.480;8.214;2022-10-31T07:13:47;21.10;54.50
35363;DHT22;21463;47.480;8.214;2022-10-31T07:14:50;21.10;54.60
35363;DHT22;21463;47.480;8.214;2022-10-31T07:15:54;21.10;54.50
35363;DHT22;21463;47.480;8.214;2022-10-31T07:16:59;21.00;54.50
35363;DHT22;21463;47.480;8.214;2022-10-31T07:18:10;21.10;54.50
35363;DHT22;21463;47.480;8.214;2022-10-31T07:19:14;21.00;54.50
35363;DHT22;21463;47.480;8.214;2022-10-31T07:20:17;21.10;54.50
35363;DHT22;21463;47.480;8.214;2022-10-31T07:21:20;21.00;54.40
35363;DHT22;21463;47.480;8.214;2022-10-31T07:22:23;21.10;54.50
35363;DHT22;21463;47.480;8.214;2022-10-31T07:23:26;21.00;54.50
35363;DHT22;21463;47.480;8.214;2022-10-31T07:24:48;21.00;54.50
35363;DHT22;21463;47.480;8.214;2022-10-31T07:26:10;21.00;54.50
35363;DHT22;21463;47.480;8.214;2022-10-31T07:27:18;21.10;54.50
35363;DHT22;21463;47.480;8.214;2022-10-31T07:28:23;21.10;54.50
35363;DHT22;21463;47.480;8.214;2022-10-31T07:29:26;21.00;54.40
35363;DHT22;21463;47.480;8.214;2022-10-31T07:30:29;21.00;54.40
35363;DHT22;21463;47.480;8.214;2022-10-31T07:31:31;21.10;54.50
35363;DHT22;21463;47.480;8.214;2022-10-31T07:32:42;21.10;54.50